<?xml version="1.0" encoding="UTF-8" standalone="no" ?>
<gpx xmlns="http://www.topografix.com/GPX/1/1" xmlns:xsi="http://www.w3.org/2001/XMLSchema-instance" xsi:schemaLocation="http://www.topografix.com/GPX/1/1 http://www.topografix.com/GPX/1/1/gpx.xsd" version="1.1" creator="VisuGPX - https://www.visugpx.com">
  <metadata>
    <name>Ventabren chemin de Roquetroucade - 2 collines</name>
    <desc><![CDATA[Petites pentes. Longe au début le canal de Marseille. ]]></desc>
  </metadata>
  <trk>
    <name><![CDATA[Ventabren chêne + 2 collines 2021-10-19_14-03_Tue]]></name>
    <trkseg>
      <trkpt lat="43.54339" lon="5.32487">
        <ele>198.4</ele>
        <time>2021-10-19T12:03:10Z</time>
      </trkpt>
      <trkpt lat="43.54345" lon="5.32491">
        <ele>230.6</ele>
        <time>2021-10-19T12:03:21Z</time>
      </trkpt>
      <trkpt lat="43.54351" lon="5.32504">
        <ele>219.8</ele>
        <time>2021-10-19T12:03:32Z</time>
      </trkpt>
      <trkpt lat="43.54357" lon="5.32512">
        <ele>220.6</ele>
        <time>2021-10-19T12:03:42Z</time>
      </trkpt>
      <trkpt lat="43.54366" lon="5.3252">
        <ele>196.3</ele>
        <time>2021-10-19T12:03:52Z</time>
      </trkpt>
      <trkpt lat="43.54375" lon="5.32526">
        <ele>209.1</ele>
        <time>2021-10-19T12:04:02Z</time>
      </trkpt>
      <trkpt lat="43.54384" lon="5.32532">
        <ele>218.2</ele>
        <time>2021-10-19T12:04:12Z</time>
      </trkpt>
      <trkpt lat="43.54388" lon="5.32536">
        <ele>189.1</ele>
        <time>2021-10-19T12:04:23Z</time>
      </trkpt>
      <trkpt lat="43.54389" lon="5.32535">
        <ele>196.8</ele>
        <time>2021-10-19T12:04:33Z</time>
      </trkpt>
      <trkpt lat="43.54389" lon="5.32535">
        <ele>208.4</ele>
        <time>2021-10-19T12:04:44Z</time>
      </trkpt>
      <trkpt lat="43.54389" lon="5.32535">
        <ele>218.3</ele>
        <time>2021-10-19T12:04:54Z</time>
      </trkpt>
      <trkpt lat="43.54389" lon="5.32535">
        <ele>209.3</ele>
        <time>2021-10-19T12:05:05Z</time>
      </trkpt>
      <trkpt lat="43.54389" lon="5.32535">
        <ele>216.4</ele>
        <time>2021-10-19T12:05:15Z</time>
      </trkpt>
      <trkpt lat="43.54391" lon="5.32537">
        <ele>208.9</ele>
        <time>2021-10-19T12:05:25Z</time>
      </trkpt>
      <trkpt lat="43.54392" lon="5.32538">
        <ele>200.3</ele>
        <time>2021-10-19T12:05:36Z</time>
      </trkpt>
      <trkpt lat="43.5439" lon="5.32539">
        <ele>203.7</ele>
        <time>2021-10-19T12:05:46Z</time>
      </trkpt>
      <trkpt lat="43.54384" lon="5.32536">
        <ele>210</ele>
        <time>2021-10-19T12:05:57Z</time>
      </trkpt>
      <trkpt lat="43.54376" lon="5.32529">
        <ele>221.8</ele>
        <time>2021-10-19T12:06:08Z</time>
      </trkpt>
      <trkpt lat="43.54368" lon="5.32523">
        <ele>212.4</ele>
        <time>2021-10-19T12:06:18Z</time>
      </trkpt>
      <trkpt lat="43.54363" lon="5.32517">
        <ele>206.7</ele>
        <time>2021-10-19T12:06:28Z</time>
      </trkpt>
      <trkpt lat="43.54355" lon="5.32509">
        <ele>208.2</ele>
        <time>2021-10-19T12:06:38Z</time>
      </trkpt>
      <trkpt lat="43.54348" lon="5.32499">
        <ele>198.1</ele>
        <time>2021-10-19T12:06:49Z</time>
      </trkpt>
      <trkpt lat="43.54338" lon="5.32485">
        <ele>226.6</ele>
        <time>2021-10-19T12:07:00Z</time>
      </trkpt>
      <trkpt lat="43.5433" lon="5.32476">
        <ele>209.3</ele>
        <time>2021-10-19T12:07:10Z</time>
      </trkpt>
      <trkpt lat="43.5432" lon="5.32468">
        <ele>222.8</ele>
        <time>2021-10-19T12:07:20Z</time>
      </trkpt>
      <trkpt lat="43.54309" lon="5.32461">
        <ele>205</ele>
        <time>2021-10-19T12:07:31Z</time>
      </trkpt>
      <trkpt lat="43.54299" lon="5.32456">
        <ele>213.8</ele>
        <time>2021-10-19T12:07:41Z</time>
      </trkpt>
      <trkpt lat="43.54288" lon="5.32453">
        <ele>212.3</ele>
        <time>2021-10-19T12:07:51Z</time>
      </trkpt>
      <trkpt lat="43.54277" lon="5.3245">
        <ele>213.2</ele>
        <time>2021-10-19T12:08:02Z</time>
      </trkpt>
      <trkpt lat="43.54268" lon="5.32453">
        <ele>203.7</ele>
        <time>2021-10-19T12:08:12Z</time>
      </trkpt>
      <trkpt lat="43.54268" lon="5.32456">
        <ele>214.1</ele>
        <time>2021-10-19T12:08:23Z</time>
      </trkpt>
      <trkpt lat="43.54257" lon="5.32448">
        <ele>210.8</ele>
        <time>2021-10-19T12:08:33Z</time>
      </trkpt>
      <trkpt lat="43.54243" lon="5.32446">
        <ele>188.9</ele>
        <time>2021-10-19T12:08:44Z</time>
      </trkpt>
      <trkpt lat="43.5423" lon="5.32445">
        <ele>216</ele>
        <time>2021-10-19T12:08:55Z</time>
      </trkpt>
      <trkpt lat="43.54219" lon="5.32446">
        <ele>218</ele>
        <time>2021-10-19T12:09:05Z</time>
      </trkpt>
      <trkpt lat="43.54209" lon="5.32454">
        <ele>225.5</ele>
        <time>2021-10-19T12:09:16Z</time>
      </trkpt>
      <trkpt lat="43.54201" lon="5.32466">
        <ele>213.1</ele>
        <time>2021-10-19T12:09:27Z</time>
      </trkpt>
      <trkpt lat="43.54195" lon="5.32479">
        <ele>200.8</ele>
        <time>2021-10-19T12:09:37Z</time>
      </trkpt>
      <trkpt lat="43.54193" lon="5.32493">
        <ele>200.8</ele>
        <time>2021-10-19T12:09:47Z</time>
      </trkpt>
      <trkpt lat="43.5419" lon="5.32509">
        <ele>218.7</ele>
        <time>2021-10-19T12:09:58Z</time>
      </trkpt>
      <trkpt lat="43.54188" lon="5.32519">
        <ele>214.6</ele>
        <time>2021-10-19T12:10:09Z</time>
      </trkpt>
      <trkpt lat="43.54193" lon="5.32533">
        <ele>238</ele>
        <time>2021-10-19T12:10:19Z</time>
      </trkpt>
      <trkpt lat="43.54199" lon="5.32544">
        <ele>199.2</ele>
        <time>2021-10-19T12:10:30Z</time>
      </trkpt>
      <trkpt lat="43.54204" lon="5.32559">
        <ele>216.5</ele>
        <time>2021-10-19T12:10:41Z</time>
      </trkpt>
      <trkpt lat="43.54206" lon="5.32576">
        <ele>192.4</ele>
        <time>2021-10-19T12:10:52Z</time>
      </trkpt>
      <trkpt lat="43.54204" lon="5.32591">
        <ele>210.7</ele>
        <time>2021-10-19T12:11:02Z</time>
      </trkpt>
      <trkpt lat="43.54201" lon="5.32605">
        <ele>205.6</ele>
        <time>2021-10-19T12:11:13Z</time>
      </trkpt>
      <trkpt lat="43.54195" lon="5.32615">
        <ele>220.4</ele>
        <time>2021-10-19T12:11:24Z</time>
      </trkpt>
      <trkpt lat="43.5419" lon="5.32627">
        <ele>213</ele>
        <time>2021-10-19T12:11:34Z</time>
      </trkpt>
      <trkpt lat="43.54187" lon="5.3264">
        <ele>213.6</ele>
        <time>2021-10-19T12:11:44Z</time>
      </trkpt>
      <trkpt lat="43.54183" lon="5.32654">
        <ele>218.7</ele>
        <time>2021-10-19T12:11:55Z</time>
      </trkpt>
      <trkpt lat="43.54182" lon="5.32669">
        <ele>198.5</ele>
        <time>2021-10-19T12:12:05Z</time>
      </trkpt>
      <trkpt lat="43.54182" lon="5.32683">
        <ele>221.2</ele>
        <time>2021-10-19T12:12:15Z</time>
      </trkpt>
      <trkpt lat="43.54183" lon="5.32699">
        <ele>217.2</ele>
        <time>2021-10-19T12:12:26Z</time>
      </trkpt>
      <trkpt lat="43.54185" lon="5.32715">
        <ele>208.7</ele>
        <time>2021-10-19T12:12:37Z</time>
      </trkpt>
      <trkpt lat="43.54189" lon="5.32725">
        <ele>219.3</ele>
        <time>2021-10-19T12:12:47Z</time>
      </trkpt>
      <trkpt lat="43.54189" lon="5.32738">
        <ele>203.9</ele>
        <time>2021-10-19T12:12:58Z</time>
      </trkpt>
      <trkpt lat="43.54186" lon="5.32753">
        <ele>213.6</ele>
        <time>2021-10-19T12:13:09Z</time>
      </trkpt>
      <trkpt lat="43.54181" lon="5.32766">
        <ele>207.6</ele>
        <time>2021-10-19T12:13:20Z</time>
      </trkpt>
      <trkpt lat="43.54175" lon="5.32778">
        <ele>201.2</ele>
        <time>2021-10-19T12:13:30Z</time>
      </trkpt>
      <trkpt lat="43.54168" lon="5.32791">
        <ele>198</ele>
        <time>2021-10-19T12:13:41Z</time>
      </trkpt>
      <trkpt lat="43.5416" lon="5.32801">
        <ele>211</ele>
        <time>2021-10-19T12:13:51Z</time>
      </trkpt>
      <trkpt lat="43.54153" lon="5.32814">
        <ele>189.7</ele>
        <time>2021-10-19T12:14:02Z</time>
      </trkpt>
      <trkpt lat="43.54145" lon="5.32826">
        <ele>222.8</ele>
        <time>2021-10-19T12:14:12Z</time>
      </trkpt>
      <trkpt lat="43.5414" lon="5.3284">
        <ele>205.9</ele>
        <time>2021-10-19T12:14:23Z</time>
      </trkpt>
      <trkpt lat="43.54135" lon="5.32853">
        <ele>220.8</ele>
        <time>2021-10-19T12:14:33Z</time>
      </trkpt>
      <trkpt lat="43.54128" lon="5.32864">
        <ele>200.6</ele>
        <time>2021-10-19T12:14:43Z</time>
      </trkpt>
      <trkpt lat="43.5412" lon="5.32873">
        <ele>218.6</ele>
        <time>2021-10-19T12:14:53Z</time>
      </trkpt>
      <trkpt lat="43.54114" lon="5.32887">
        <ele>207.5</ele>
        <time>2021-10-19T12:15:04Z</time>
      </trkpt>
      <trkpt lat="43.54109" lon="5.32899">
        <ele>189.1</ele>
        <time>2021-10-19T12:15:14Z</time>
      </trkpt>
      <trkpt lat="43.54105" lon="5.32912">
        <ele>202.5</ele>
        <time>2021-10-19T12:15:24Z</time>
      </trkpt>
      <trkpt lat="43.54097" lon="5.32926">
        <ele>222.5</ele>
        <time>2021-10-19T12:15:35Z</time>
      </trkpt>
      <trkpt lat="43.54089" lon="5.32938">
        <ele>226.4</ele>
        <time>2021-10-19T12:15:45Z</time>
      </trkpt>
      <trkpt lat="43.54082" lon="5.32949">
        <ele>203.9</ele>
        <time>2021-10-19T12:15:55Z</time>
      </trkpt>
      <trkpt lat="43.54074" lon="5.3296">
        <ele>216.5</ele>
        <time>2021-10-19T12:16:06Z</time>
      </trkpt>
      <trkpt lat="43.5407" lon="5.3297">
        <ele>206.9</ele>
        <time>2021-10-19T12:16:16Z</time>
      </trkpt>
      <trkpt lat="43.54067" lon="5.32982">
        <ele>220.2</ele>
        <time>2021-10-19T12:16:26Z</time>
      </trkpt>
      <trkpt lat="43.54062" lon="5.32988">
        <ele>213.5</ele>
        <time>2021-10-19T12:16:36Z</time>
      </trkpt>
      <trkpt lat="43.54058" lon="5.32999">
        <ele>220.7</ele>
        <time>2021-10-19T12:16:46Z</time>
      </trkpt>
      <trkpt lat="43.54051" lon="5.3301">
        <ele>191.3</ele>
        <time>2021-10-19T12:16:57Z</time>
      </trkpt>
      <trkpt lat="43.54043" lon="5.33023">
        <ele>196.4</ele>
        <time>2021-10-19T12:17:08Z</time>
      </trkpt>
      <trkpt lat="43.54038" lon="5.33035">
        <ele>209.4</ele>
        <time>2021-10-19T12:17:18Z</time>
      </trkpt>
      <trkpt lat="43.54035" lon="5.3305">
        <ele>220.8</ele>
        <time>2021-10-19T12:17:28Z</time>
      </trkpt>
      <trkpt lat="43.54034" lon="5.33064">
        <ele>205.5</ele>
        <time>2021-10-19T12:17:38Z</time>
      </trkpt>
      <trkpt lat="43.54028" lon="5.33077">
        <ele>217.6</ele>
        <time>2021-10-19T12:17:49Z</time>
      </trkpt>
      <trkpt lat="43.5402" lon="5.33087">
        <ele>229.1</ele>
        <time>2021-10-19T12:17:59Z</time>
      </trkpt>
      <trkpt lat="43.54013" lon="5.33093">
        <ele>193.2</ele>
        <time>2021-10-19T12:18:09Z</time>
      </trkpt>
      <trkpt lat="43.54006" lon="5.33105">
        <ele>214.5</ele>
        <time>2021-10-19T12:18:20Z</time>
      </trkpt>
      <trkpt lat="43.54001" lon="5.33118">
        <ele>199.9</ele>
        <time>2021-10-19T12:18:31Z</time>
      </trkpt>
      <trkpt lat="43.53995" lon="5.33135">
        <ele>202.9</ele>
        <time>2021-10-19T12:18:42Z</time>
      </trkpt>
      <trkpt lat="43.53988" lon="5.33151">
        <ele>205.4</ele>
        <time>2021-10-19T12:18:53Z</time>
      </trkpt>
      <trkpt lat="43.53984" lon="5.33167">
        <ele>223.4</ele>
        <time>2021-10-19T12:19:03Z</time>
      </trkpt>
      <trkpt lat="43.53982" lon="5.33182">
        <ele>196.8</ele>
        <time>2021-10-19T12:19:13Z</time>
      </trkpt>
      <trkpt lat="43.53979" lon="5.33197">
        <ele>216.8</ele>
        <time>2021-10-19T12:19:24Z</time>
      </trkpt>
      <trkpt lat="43.53976" lon="5.33211">
        <ele>220.8</ele>
        <time>2021-10-19T12:19:35Z</time>
      </trkpt>
      <trkpt lat="43.53973" lon="5.33226">
        <ele>209.8</ele>
        <time>2021-10-19T12:19:46Z</time>
      </trkpt>
      <trkpt lat="43.53967" lon="5.33239">
        <ele>201.5</ele>
        <time>2021-10-19T12:19:56Z</time>
      </trkpt>
      <trkpt lat="43.53959" lon="5.33249">
        <ele>203.7</ele>
        <time>2021-10-19T12:20:07Z</time>
      </trkpt>
      <trkpt lat="43.53952" lon="5.33256">
        <ele>208.6</ele>
        <time>2021-10-19T12:20:17Z</time>
      </trkpt>
      <trkpt lat="43.53943" lon="5.33264">
        <ele>229.4</ele>
        <time>2021-10-19T12:20:28Z</time>
      </trkpt>
      <trkpt lat="43.53935" lon="5.33263">
        <ele>219.6</ele>
        <time>2021-10-19T12:20:39Z</time>
      </trkpt>
      <trkpt lat="43.53927" lon="5.33261">
        <ele>235.3</ele>
        <time>2021-10-19T12:20:49Z</time>
      </trkpt>
      <trkpt lat="43.53919" lon="5.33256">
        <ele>228.2</ele>
        <time>2021-10-19T12:21:00Z</time>
      </trkpt>
      <trkpt lat="43.53911" lon="5.33253">
        <ele>202.9</ele>
        <time>2021-10-19T12:21:10Z</time>
      </trkpt>
      <trkpt lat="43.53906" lon="5.33251">
        <ele>219.7</ele>
        <time>2021-10-19T12:21:20Z</time>
      </trkpt>
      <trkpt lat="43.53903" lon="5.33249">
        <ele>205.9</ele>
        <time>2021-10-19T12:21:31Z</time>
      </trkpt>
      <trkpt lat="43.53898" lon="5.33247">
        <ele>225.1</ele>
        <time>2021-10-19T12:21:41Z</time>
      </trkpt>
      <trkpt lat="43.5389" lon="5.33243">
        <ele>212.8</ele>
        <time>2021-10-19T12:21:51Z</time>
      </trkpt>
      <trkpt lat="43.53879" lon="5.33239">
        <ele>205</ele>
        <time>2021-10-19T12:22:02Z</time>
      </trkpt>
      <trkpt lat="43.53871" lon="5.33241">
        <ele>228.2</ele>
        <time>2021-10-19T12:22:13Z</time>
      </trkpt>
      <trkpt lat="43.53866" lon="5.33251">
        <ele>226.1</ele>
        <time>2021-10-19T12:22:23Z</time>
      </trkpt>
      <trkpt lat="43.53867" lon="5.33265">
        <ele>222.8</ele>
        <time>2021-10-19T12:22:34Z</time>
      </trkpt>
      <trkpt lat="43.53867" lon="5.33274">
        <ele>221.2</ele>
        <time>2021-10-19T12:22:44Z</time>
      </trkpt>
      <trkpt lat="43.5387" lon="5.3329">
        <ele>223.3</ele>
        <time>2021-10-19T12:22:55Z</time>
      </trkpt>
      <trkpt lat="43.5387" lon="5.33291">
        <ele>211.7</ele>
        <time>2021-10-19T12:23:05Z</time>
      </trkpt>
      <trkpt lat="43.53871" lon="5.33291">
        <ele>226.8</ele>
        <time>2021-10-19T12:23:15Z</time>
      </trkpt>
      <trkpt lat="43.5387" lon="5.33291">
        <ele>238.6</ele>
        <time>2021-10-19T12:23:26Z</time>
      </trkpt>
      <trkpt lat="43.53868" lon="5.33289">
        <ele>239.5</ele>
        <time>2021-10-19T12:23:36Z</time>
      </trkpt>
      <trkpt lat="43.53866" lon="5.33278">
        <ele>215.7</ele>
        <time>2021-10-19T12:23:47Z</time>
      </trkpt>
      <trkpt lat="43.53863" lon="5.33271">
        <ele>225.6</ele>
        <time>2021-10-19T12:23:58Z</time>
      </trkpt>
      <trkpt lat="43.53864" lon="5.33256">
        <ele>222.1</ele>
        <time>2021-10-19T12:24:08Z</time>
      </trkpt>
      <trkpt lat="43.53866" lon="5.33246">
        <ele>227.4</ele>
        <time>2021-10-19T12:24:18Z</time>
      </trkpt>
      <trkpt lat="43.53873" lon="5.3324">
        <ele>239.2</ele>
        <time>2021-10-19T12:24:29Z</time>
      </trkpt>
      <trkpt lat="43.53884" lon="5.33239">
        <ele>240.9</ele>
        <time>2021-10-19T12:24:39Z</time>
      </trkpt>
      <trkpt lat="43.53893" lon="5.33242">
        <ele>221.3</ele>
        <time>2021-10-19T12:24:50Z</time>
      </trkpt>
      <trkpt lat="43.53901" lon="5.33246">
        <ele>232</ele>
        <time>2021-10-19T12:25:00Z</time>
      </trkpt>
      <trkpt lat="43.5391" lon="5.3325">
        <ele>198.5</ele>
        <time>2021-10-19T12:25:11Z</time>
      </trkpt>
      <trkpt lat="43.53917" lon="5.33256">
        <ele>216.9</ele>
        <time>2021-10-19T12:25:21Z</time>
      </trkpt>
      <trkpt lat="43.53927" lon="5.3326">
        <ele>224.6</ele>
        <time>2021-10-19T12:25:32Z</time>
      </trkpt>
      <trkpt lat="43.53938" lon="5.33263">
        <ele>206.3</ele>
        <time>2021-10-19T12:25:43Z</time>
      </trkpt>
      <trkpt lat="43.53942" lon="5.33257">
        <ele>223.5</ele>
        <time>2021-10-19T12:25:53Z</time>
      </trkpt>
      <trkpt lat="43.53941" lon="5.33245">
        <ele>211.6</ele>
        <time>2021-10-19T12:26:04Z</time>
      </trkpt>
      <trkpt lat="43.53941" lon="5.3323">
        <ele>216.5</ele>
        <time>2021-10-19T12:26:14Z</time>
      </trkpt>
      <trkpt lat="43.5394" lon="5.33217">
        <ele>234.1</ele>
        <time>2021-10-19T12:26:24Z</time>
      </trkpt>
      <trkpt lat="43.53941" lon="5.33207">
        <ele>232.9</ele>
        <time>2021-10-19T12:26:34Z</time>
      </trkpt>
      <trkpt lat="43.53943" lon="5.33194">
        <ele>231.6</ele>
        <time>2021-10-19T12:26:44Z</time>
      </trkpt>
      <trkpt lat="43.53942" lon="5.33183">
        <ele>221.5</ele>
        <time>2021-10-19T12:26:55Z</time>
      </trkpt>
      <trkpt lat="43.53944" lon="5.33172">
        <ele>211</ele>
        <time>2021-10-19T12:27:05Z</time>
      </trkpt>
      <trkpt lat="43.53945" lon="5.33161">
        <ele>226.4</ele>
        <time>2021-10-19T12:27:15Z</time>
      </trkpt>
      <trkpt lat="43.53945" lon="5.33154">
        <ele>243.2</ele>
        <time>2021-10-19T12:27:26Z</time>
      </trkpt>
      <trkpt lat="43.53945" lon="5.33151">
        <ele>218.5</ele>
        <time>2021-10-19T12:27:37Z</time>
      </trkpt>
      <trkpt lat="43.53946" lon="5.3315">
        <ele>211.4</ele>
        <time>2021-10-19T12:27:48Z</time>
      </trkpt>
      <trkpt lat="43.53945" lon="5.33139">
        <ele>220.7</ele>
        <time>2021-10-19T12:27:59Z</time>
      </trkpt>
      <trkpt lat="43.53945" lon="5.33128">
        <ele>230.1</ele>
        <time>2021-10-19T12:28:10Z</time>
      </trkpt>
      <trkpt lat="43.53946" lon="5.33116">
        <ele>231.4</ele>
        <time>2021-10-19T12:28:20Z</time>
      </trkpt>
      <trkpt lat="43.53947" lon="5.33106">
        <ele>230.9</ele>
        <time>2021-10-19T12:28:30Z</time>
      </trkpt>
      <trkpt lat="43.53948" lon="5.33094">
        <ele>234.5</ele>
        <time>2021-10-19T12:28:40Z</time>
      </trkpt>
      <trkpt lat="43.53949" lon="5.33081">
        <ele>224.5</ele>
        <time>2021-10-19T12:28:51Z</time>
      </trkpt>
      <trkpt lat="43.5395" lon="5.3307">
        <ele>209.4</ele>
        <time>2021-10-19T12:29:02Z</time>
      </trkpt>
      <trkpt lat="43.53951" lon="5.3306">
        <ele>252.9</ele>
        <time>2021-10-19T12:29:12Z</time>
      </trkpt>
      <trkpt lat="43.53951" lon="5.33048">
        <ele>246.2</ele>
        <time>2021-10-19T12:29:22Z</time>
      </trkpt>
      <trkpt lat="43.53951" lon="5.33038">
        <ele>239</ele>
        <time>2021-10-19T12:29:33Z</time>
      </trkpt>
      <trkpt lat="43.53952" lon="5.33026">
        <ele>234.6</ele>
        <time>2021-10-19T12:29:44Z</time>
      </trkpt>
      <trkpt lat="43.53951" lon="5.33018">
        <ele>253.6</ele>
        <time>2021-10-19T12:29:54Z</time>
      </trkpt>
      <trkpt lat="43.53949" lon="5.33008">
        <ele>209.1</ele>
        <time>2021-10-19T12:30:05Z</time>
      </trkpt>
      <trkpt lat="43.53947" lon="5.32999">
        <ele>224.1</ele>
        <time>2021-10-19T12:30:15Z</time>
      </trkpt>
      <trkpt lat="43.53945" lon="5.32988">
        <ele>243.9</ele>
        <time>2021-10-19T12:30:26Z</time>
      </trkpt>
      <trkpt lat="43.53943" lon="5.32978">
        <ele>250.7</ele>
        <time>2021-10-19T12:30:36Z</time>
      </trkpt>
      <trkpt lat="43.53943" lon="5.32966">
        <ele>231.2</ele>
        <time>2021-10-19T12:30:47Z</time>
      </trkpt>
      <trkpt lat="43.53944" lon="5.32951">
        <ele>231.6</ele>
        <time>2021-10-19T12:30:58Z</time>
      </trkpt>
      <trkpt lat="43.53944" lon="5.32939">
        <ele>249.8</ele>
        <time>2021-10-19T12:31:09Z</time>
      </trkpt>
      <trkpt lat="43.53944" lon="5.32926">
        <ele>239.4</ele>
        <time>2021-10-19T12:31:19Z</time>
      </trkpt>
      <trkpt lat="43.53945" lon="5.32915">
        <ele>236.3</ele>
        <time>2021-10-19T12:31:29Z</time>
      </trkpt>
      <trkpt lat="43.53945" lon="5.32904">
        <ele>233.2</ele>
        <time>2021-10-19T12:31:40Z</time>
      </trkpt>
      <trkpt lat="43.53945" lon="5.32896">
        <ele>224.9</ele>
        <time>2021-10-19T12:31:50Z</time>
      </trkpt>
      <trkpt lat="43.53946" lon="5.32895">
        <ele>232.9</ele>
        <time>2021-10-19T12:32:01Z</time>
      </trkpt>
      <trkpt lat="43.53947" lon="5.32895">
        <ele>243.8</ele>
        <time>2021-10-19T12:32:12Z</time>
      </trkpt>
      <trkpt lat="43.53946" lon="5.32895">
        <ele>247.1</ele>
        <time>2021-10-19T12:32:22Z</time>
      </trkpt>
      <trkpt lat="43.53947" lon="5.32895">
        <ele>218</ele>
        <time>2021-10-19T12:32:33Z</time>
      </trkpt>
      <trkpt lat="43.53947" lon="5.32895">
        <ele>252.2</ele>
        <time>2021-10-19T12:32:44Z</time>
      </trkpt>
      <trkpt lat="43.53947" lon="5.32895">
        <ele>246.6</ele>
        <time>2021-10-19T12:32:54Z</time>
      </trkpt>
      <trkpt lat="43.53947" lon="5.32895">
        <ele>240.8</ele>
        <time>2021-10-19T12:33:04Z</time>
      </trkpt>
      <trkpt lat="43.53947" lon="5.32895">
        <ele>233.7</ele>
        <time>2021-10-19T12:33:15Z</time>
      </trkpt>
      <trkpt lat="43.53947" lon="5.32895">
        <ele>233</ele>
        <time>2021-10-19T12:33:25Z</time>
      </trkpt>
      <trkpt lat="43.53947" lon="5.32895">
        <ele>235.8</ele>
        <time>2021-10-19T12:33:36Z</time>
      </trkpt>
      <trkpt lat="43.53947" lon="5.32895">
        <ele>249.2</ele>
        <time>2021-10-19T12:33:47Z</time>
      </trkpt>
      <trkpt lat="43.53947" lon="5.32895">
        <ele>247.9</ele>
        <time>2021-10-19T12:33:58Z</time>
      </trkpt>
      <trkpt lat="43.53947" lon="5.32895">
        <ele>230.6</ele>
        <time>2021-10-19T12:34:08Z</time>
      </trkpt>
      <trkpt lat="43.53947" lon="5.32895">
        <ele>247.1</ele>
        <time>2021-10-19T12:34:19Z</time>
      </trkpt>
      <trkpt lat="43.53947" lon="5.32895">
        <ele>245.2</ele>
        <time>2021-10-19T12:34:29Z</time>
      </trkpt>
      <trkpt lat="43.53947" lon="5.32895">
        <ele>233.9</ele>
        <time>2021-10-19T12:34:39Z</time>
      </trkpt>
      <trkpt lat="43.53947" lon="5.32895">
        <ele>235.4</ele>
        <time>2021-10-19T12:34:50Z</time>
      </trkpt>
      <trkpt lat="43.53947" lon="5.32894">
        <ele>232.6</ele>
        <time>2021-10-19T12:35:01Z</time>
      </trkpt>
      <trkpt lat="43.53947" lon="5.32894">
        <ele>240.9</ele>
        <time>2021-10-19T12:35:11Z</time>
      </trkpt>
      <trkpt lat="43.53947" lon="5.32894">
        <ele>236.2</ele>
        <time>2021-10-19T12:35:22Z</time>
      </trkpt>
      <trkpt lat="43.53947" lon="5.32894">
        <ele>239.7</ele>
        <time>2021-10-19T12:35:32Z</time>
      </trkpt>
      <trkpt lat="43.53946" lon="5.32894">
        <ele>238.8</ele>
        <time>2021-10-19T12:35:42Z</time>
      </trkpt>
      <trkpt lat="43.53945" lon="5.32885">
        <ele>242</ele>
        <time>2021-10-19T12:35:52Z</time>
      </trkpt>
      <trkpt lat="43.53946" lon="5.32875">
        <ele>246.5</ele>
        <time>2021-10-19T12:36:03Z</time>
      </trkpt>
      <trkpt lat="43.53947" lon="5.32868">
        <ele>252.7</ele>
        <time>2021-10-19T12:36:14Z</time>
      </trkpt>
      <trkpt lat="43.53947" lon="5.32858">
        <ele>235.6</ele>
        <time>2021-10-19T12:36:24Z</time>
      </trkpt>
      <trkpt lat="43.53947" lon="5.32845">
        <ele>243.9</ele>
        <time>2021-10-19T12:36:35Z</time>
      </trkpt>
      <trkpt lat="43.53947" lon="5.32834">
        <ele>236.4</ele>
        <time>2021-10-19T12:36:46Z</time>
      </trkpt>
      <trkpt lat="43.53949" lon="5.32822">
        <ele>253</ele>
        <time>2021-10-19T12:36:57Z</time>
      </trkpt>
      <trkpt lat="43.5395" lon="5.32809">
        <ele>238.1</ele>
        <time>2021-10-19T12:37:07Z</time>
      </trkpt>
      <trkpt lat="43.53951" lon="5.32798">
        <ele>252.5</ele>
        <time>2021-10-19T12:37:18Z</time>
      </trkpt>
      <trkpt lat="43.53952" lon="5.32785">
        <ele>273</ele>
        <time>2021-10-19T12:37:28Z</time>
      </trkpt>
      <trkpt lat="43.53952" lon="5.32773">
        <ele>230.9</ele>
        <time>2021-10-19T12:37:39Z</time>
      </trkpt>
      <trkpt lat="43.53953" lon="5.32763">
        <ele>240.9</ele>
        <time>2021-10-19T12:37:49Z</time>
      </trkpt>
      <trkpt lat="43.53953" lon="5.32752">
        <ele>279.9</ele>
        <time>2021-10-19T12:38:00Z</time>
      </trkpt>
      <trkpt lat="43.53952" lon="5.32739">
        <ele>249.8</ele>
        <time>2021-10-19T12:38:10Z</time>
      </trkpt>
      <trkpt lat="43.53951" lon="5.32728">
        <ele>260.8</ele>
        <time>2021-10-19T12:38:20Z</time>
      </trkpt>
      <trkpt lat="43.53951" lon="5.32713">
        <ele>251.4</ele>
        <time>2021-10-19T12:38:31Z</time>
      </trkpt>
      <trkpt lat="43.5395" lon="5.32701">
        <ele>260.2</ele>
        <time>2021-10-19T12:38:41Z</time>
      </trkpt>
      <trkpt lat="43.53953" lon="5.32689">
        <ele>254</ele>
        <time>2021-10-19T12:38:52Z</time>
      </trkpt>
      <trkpt lat="43.53953" lon="5.3268">
        <ele>256.8</ele>
        <time>2021-10-19T12:39:03Z</time>
      </trkpt>
      <trkpt lat="43.53955" lon="5.32671">
        <ele>263.2</ele>
        <time>2021-10-19T12:39:13Z</time>
      </trkpt>
      <trkpt lat="43.53958" lon="5.32662">
        <ele>267.4</ele>
        <time>2021-10-19T12:39:24Z</time>
      </trkpt>
      <trkpt lat="43.5396" lon="5.32655">
        <ele>264.1</ele>
        <time>2021-10-19T12:39:34Z</time>
      </trkpt>
      <trkpt lat="43.5396" lon="5.32655">
        <ele>261.2</ele>
        <time>2021-10-19T12:39:44Z</time>
      </trkpt>
      <trkpt lat="43.5396" lon="5.32655">
        <ele>253.7</ele>
        <time>2021-10-19T12:39:55Z</time>
      </trkpt>
      <trkpt lat="43.5396" lon="5.32654">
        <ele>257</ele>
        <time>2021-10-19T12:40:05Z</time>
      </trkpt>
      <trkpt lat="43.53962" lon="5.32645">
        <ele>255.1</ele>
        <time>2021-10-19T12:40:16Z</time>
      </trkpt>
      <trkpt lat="43.53966" lon="5.32635">
        <ele>258.8</ele>
        <time>2021-10-19T12:40:27Z</time>
      </trkpt>
      <trkpt lat="43.53969" lon="5.32624">
        <ele>259.2</ele>
        <time>2021-10-19T12:40:37Z</time>
      </trkpt>
      <trkpt lat="43.5397" lon="5.32614">
        <ele>276.1</ele>
        <time>2021-10-19T12:40:48Z</time>
      </trkpt>
      <trkpt lat="43.5397" lon="5.32599">
        <ele>254.7</ele>
        <time>2021-10-19T12:40:59Z</time>
      </trkpt>
      <trkpt lat="43.53971" lon="5.32589">
        <ele>266.2</ele>
        <time>2021-10-19T12:41:09Z</time>
      </trkpt>
      <trkpt lat="43.5397" lon="5.32576">
        <ele>260.6</ele>
        <time>2021-10-19T12:41:20Z</time>
      </trkpt>
      <trkpt lat="43.53968" lon="5.32565">
        <ele>266.6</ele>
        <time>2021-10-19T12:41:30Z</time>
      </trkpt>
      <trkpt lat="43.53967" lon="5.32554">
        <ele>277.5</ele>
        <time>2021-10-19T12:41:40Z</time>
      </trkpt>
      <trkpt lat="43.53967" lon="5.32541">
        <ele>271.3</ele>
        <time>2021-10-19T12:41:51Z</time>
      </trkpt>
      <trkpt lat="43.53967" lon="5.32528">
        <ele>272.9</ele>
        <time>2021-10-19T12:42:01Z</time>
      </trkpt>
      <trkpt lat="43.53968" lon="5.32517">
        <ele>262.7</ele>
        <time>2021-10-19T12:42:11Z</time>
      </trkpt>
      <trkpt lat="43.53967" lon="5.32505">
        <ele>268.8</ele>
        <time>2021-10-19T12:42:22Z</time>
      </trkpt>
      <trkpt lat="43.53965" lon="5.32492">
        <ele>265.8</ele>
        <time>2021-10-19T12:42:33Z</time>
      </trkpt>
      <trkpt lat="43.53964" lon="5.32478">
        <ele>258.4</ele>
        <time>2021-10-19T12:42:44Z</time>
      </trkpt>
      <trkpt lat="43.53961" lon="5.32465">
        <ele>268.4</ele>
        <time>2021-10-19T12:42:54Z</time>
      </trkpt>
      <trkpt lat="43.53959" lon="5.32454">
        <ele>260.1</ele>
        <time>2021-10-19T12:43:05Z</time>
      </trkpt>
      <trkpt lat="43.53956" lon="5.32442">
        <ele>268.8</ele>
        <time>2021-10-19T12:43:16Z</time>
      </trkpt>
      <trkpt lat="43.53952" lon="5.32431">
        <ele>260.2</ele>
        <time>2021-10-19T12:43:26Z</time>
      </trkpt>
      <trkpt lat="43.53947" lon="5.3242">
        <ele>274.9</ele>
        <time>2021-10-19T12:43:37Z</time>
      </trkpt>
      <trkpt lat="43.53944" lon="5.32413">
        <ele>280.3</ele>
        <time>2021-10-19T12:43:48Z</time>
      </trkpt>
      <trkpt lat="43.53943" lon="5.32413">
        <ele>261.6</ele>
        <time>2021-10-19T12:43:58Z</time>
      </trkpt>
      <trkpt lat="43.53943" lon="5.32414">
        <ele>275.6</ele>
        <time>2021-10-19T12:44:08Z</time>
      </trkpt>
      <trkpt lat="43.53943" lon="5.32414">
        <ele>262.3</ele>
        <time>2021-10-19T12:44:19Z</time>
      </trkpt>
      <trkpt lat="43.53943" lon="5.32414">
        <ele>265.9</ele>
        <time>2021-10-19T12:44:30Z</time>
      </trkpt>
      <trkpt lat="43.53942" lon="5.32414">
        <ele>266</ele>
        <time>2021-10-19T12:44:40Z</time>
      </trkpt>
      <trkpt lat="43.53943" lon="5.32415">
        <ele>248.8</ele>
        <time>2021-10-19T12:44:51Z</time>
      </trkpt>
      <trkpt lat="43.53943" lon="5.32415">
        <ele>261</ele>
        <time>2021-10-19T12:45:02Z</time>
      </trkpt>
      <trkpt lat="43.53943" lon="5.32415">
        <ele>267.3</ele>
        <time>2021-10-19T12:45:12Z</time>
      </trkpt>
      <trkpt lat="43.53944" lon="5.32413">
        <ele>275.6</ele>
        <time>2021-10-19T12:45:22Z</time>
      </trkpt>
      <trkpt lat="43.53944" lon="5.32413">
        <ele>260.5</ele>
        <time>2021-10-19T12:45:33Z</time>
      </trkpt>
      <trkpt lat="43.53944" lon="5.32413">
        <ele>268.3</ele>
        <time>2021-10-19T12:45:43Z</time>
      </trkpt>
      <trkpt lat="43.53944" lon="5.32413">
        <ele>271.4</ele>
        <time>2021-10-19T12:45:54Z</time>
      </trkpt>
      <trkpt lat="43.53944" lon="5.32413">
        <ele>266.6</ele>
        <time>2021-10-19T12:46:05Z</time>
      </trkpt>
      <trkpt lat="43.53944" lon="5.32413">
        <ele>255.5</ele>
        <time>2021-10-19T12:46:15Z</time>
      </trkpt>
      <trkpt lat="43.53944" lon="5.32413">
        <ele>260.3</ele>
        <time>2021-10-19T12:46:25Z</time>
      </trkpt>
      <trkpt lat="43.53944" lon="5.32413">
        <ele>269.2</ele>
        <time>2021-10-19T12:46:36Z</time>
      </trkpt>
      <trkpt lat="43.53944" lon="5.32413">
        <ele>274.4</ele>
        <time>2021-10-19T12:46:47Z</time>
      </trkpt>
      <trkpt lat="43.53944" lon="5.32413">
        <ele>262.9</ele>
        <time>2021-10-19T12:46:57Z</time>
      </trkpt>
      <trkpt lat="43.53944" lon="5.32413">
        <ele>267.4</ele>
        <time>2021-10-19T12:47:08Z</time>
      </trkpt>
      <trkpt lat="43.53944" lon="5.32413">
        <ele>257.3</ele>
        <time>2021-10-19T12:47:19Z</time>
      </trkpt>
      <trkpt lat="43.53944" lon="5.32413">
        <ele>259.6</ele>
        <time>2021-10-19T12:47:29Z</time>
      </trkpt>
      <trkpt lat="43.53944" lon="5.32413">
        <ele>274.7</ele>
        <time>2021-10-19T12:47:39Z</time>
      </trkpt>
      <trkpt lat="43.53943" lon="5.32408">
        <ele>280.6</ele>
        <time>2021-10-19T12:47:49Z</time>
      </trkpt>
      <trkpt lat="43.53942" lon="5.32402">
        <ele>283.4</ele>
        <time>2021-10-19T12:47:59Z</time>
      </trkpt>
      <trkpt lat="43.53939" lon="5.32391">
        <ele>278.8</ele>
        <time>2021-10-19T12:48:10Z</time>
      </trkpt>
      <trkpt lat="43.53935" lon="5.32382">
        <ele>279.7</ele>
        <time>2021-10-19T12:48:20Z</time>
      </trkpt>
      <trkpt lat="43.53932" lon="5.32375">
        <ele>267.2</ele>
        <time>2021-10-19T12:48:31Z</time>
      </trkpt>
      <trkpt lat="43.53929" lon="5.32364">
        <ele>255.3</ele>
        <time>2021-10-19T12:48:42Z</time>
      </trkpt>
      <trkpt lat="43.53925" lon="5.32353">
        <ele>262.2</ele>
        <time>2021-10-19T12:48:52Z</time>
      </trkpt>
      <trkpt lat="43.5392" lon="5.3234">
        <ele>272.9</ele>
        <time>2021-10-19T12:49:03Z</time>
      </trkpt>
      <trkpt lat="43.53917" lon="5.32332">
        <ele>275.4</ele>
        <time>2021-10-19T12:49:13Z</time>
      </trkpt>
      <trkpt lat="43.53912" lon="5.32321">
        <ele>260</ele>
        <time>2021-10-19T12:49:23Z</time>
      </trkpt>
      <trkpt lat="43.53906" lon="5.3231">
        <ele>267.6</ele>
        <time>2021-10-19T12:49:34Z</time>
      </trkpt>
      <trkpt lat="43.539" lon="5.32301">
        <ele>255.7</ele>
        <time>2021-10-19T12:49:45Z</time>
      </trkpt>
      <trkpt lat="43.53894" lon="5.3229">
        <ele>259.7</ele>
        <time>2021-10-19T12:49:55Z</time>
      </trkpt>
      <trkpt lat="43.53887" lon="5.32279">
        <ele>272.4</ele>
        <time>2021-10-19T12:50:05Z</time>
      </trkpt>
      <trkpt lat="43.5388" lon="5.32268">
        <ele>261.1</ele>
        <time>2021-10-19T12:50:16Z</time>
      </trkpt>
      <trkpt lat="43.53875" lon="5.32258">
        <ele>261.2</ele>
        <time>2021-10-19T12:50:26Z</time>
      </trkpt>
      <trkpt lat="43.53869" lon="5.32247">
        <ele>259.5</ele>
        <time>2021-10-19T12:50:37Z</time>
      </trkpt>
      <trkpt lat="43.53864" lon="5.32237">
        <ele>283.4</ele>
        <time>2021-10-19T12:50:47Z</time>
      </trkpt>
      <trkpt lat="43.53857" lon="5.32226">
        <ele>264.4</ele>
        <time>2021-10-19T12:50:58Z</time>
      </trkpt>
      <trkpt lat="43.5385" lon="5.32216">
        <ele>280.1</ele>
        <time>2021-10-19T12:51:09Z</time>
      </trkpt>
      <trkpt lat="43.53842" lon="5.32206">
        <ele>264.9</ele>
        <time>2021-10-19T12:51:19Z</time>
      </trkpt>
      <trkpt lat="43.53837" lon="5.32197">
        <ele>256.4</ele>
        <time>2021-10-19T12:51:29Z</time>
      </trkpt>
      <trkpt lat="43.5383" lon="5.32188">
        <ele>273.8</ele>
        <time>2021-10-19T12:51:40Z</time>
      </trkpt>
      <trkpt lat="43.53823" lon="5.32179">
        <ele>258.4</ele>
        <time>2021-10-19T12:51:51Z</time>
      </trkpt>
      <trkpt lat="43.53815" lon="5.3217">
        <ele>259.1</ele>
        <time>2021-10-19T12:52:01Z</time>
      </trkpt>
      <trkpt lat="43.53808" lon="5.3216">
        <ele>267</ele>
        <time>2021-10-19T12:52:12Z</time>
      </trkpt>
      <trkpt lat="43.53802" lon="5.32151">
        <ele>247.5</ele>
        <time>2021-10-19T12:52:23Z</time>
      </trkpt>
      <trkpt lat="43.53796" lon="5.32142">
        <ele>255.7</ele>
        <time>2021-10-19T12:52:33Z</time>
      </trkpt>
      <trkpt lat="43.53789" lon="5.32134">
        <ele>232.9</ele>
        <time>2021-10-19T12:52:44Z</time>
      </trkpt>
      <trkpt lat="43.5378" lon="5.32123">
        <ele>243</ele>
        <time>2021-10-19T12:52:55Z</time>
      </trkpt>
      <trkpt lat="43.53773" lon="5.32114">
        <ele>232.5</ele>
        <time>2021-10-19T12:53:05Z</time>
      </trkpt>
      <trkpt lat="43.53766" lon="5.32106">
        <ele>261.3</ele>
        <time>2021-10-19T12:53:16Z</time>
      </trkpt>
      <trkpt lat="43.53759" lon="5.32099">
        <ele>242.3</ele>
        <time>2021-10-19T12:53:26Z</time>
      </trkpt>
      <trkpt lat="43.53753" lon="5.32091">
        <ele>244.6</ele>
        <time>2021-10-19T12:53:36Z</time>
      </trkpt>
      <trkpt lat="43.53747" lon="5.3208">
        <ele>267.5</ele>
        <time>2021-10-19T12:53:47Z</time>
      </trkpt>
      <trkpt lat="43.53744" lon="5.32073">
        <ele>251.6</ele>
        <time>2021-10-19T12:53:58Z</time>
      </trkpt>
      <trkpt lat="43.5374" lon="5.3207">
        <ele>256</ele>
        <time>2021-10-19T12:54:09Z</time>
      </trkpt>
      <trkpt lat="43.53736" lon="5.32061">
        <ele>242.2</ele>
        <time>2021-10-19T12:54:19Z</time>
      </trkpt>
      <trkpt lat="43.5373" lon="5.32056">
        <ele>253.3</ele>
        <time>2021-10-19T12:54:29Z</time>
      </trkpt>
      <trkpt lat="43.53727" lon="5.32052">
        <ele>251.2</ele>
        <time>2021-10-19T12:54:39Z</time>
      </trkpt>
      <trkpt lat="43.53722" lon="5.32049">
        <ele>239.5</ele>
        <time>2021-10-19T12:54:49Z</time>
      </trkpt>
      <trkpt lat="43.53715" lon="5.32043">
        <ele>220.9</ele>
        <time>2021-10-19T12:55:00Z</time>
      </trkpt>
      <trkpt lat="43.53714" lon="5.32043">
        <ele>267.7</ele>
        <time>2021-10-19T12:55:11Z</time>
      </trkpt>
      <trkpt lat="43.53714" lon="5.32043">
        <ele>232.7</ele>
        <time>2021-10-19T12:55:22Z</time>
      </trkpt>
      <trkpt lat="43.53712" lon="5.32041">
        <ele>244.4</ele>
        <time>2021-10-19T12:55:32Z</time>
      </trkpt>
      <trkpt lat="43.53712" lon="5.32042">
        <ele>239.7</ele>
        <time>2021-10-19T12:55:43Z</time>
      </trkpt>
      <trkpt lat="43.53712" lon="5.32042">
        <ele>249</ele>
        <time>2021-10-19T12:55:54Z</time>
      </trkpt>
      <trkpt lat="43.53712" lon="5.32042">
        <ele>247.9</ele>
        <time>2021-10-19T12:56:05Z</time>
      </trkpt>
      <trkpt lat="43.53712" lon="5.32042">
        <ele>238.3</ele>
        <time>2021-10-19T12:56:15Z</time>
      </trkpt>
      <trkpt lat="43.53709" lon="5.3204">
        <ele>257.5</ele>
        <time>2021-10-19T12:56:26Z</time>
      </trkpt>
      <trkpt lat="43.53709" lon="5.3204">
        <ele>245</ele>
        <time>2021-10-19T12:56:36Z</time>
      </trkpt>
      <trkpt lat="43.53707" lon="5.32035">
        <ele>247.9</ele>
        <time>2021-10-19T12:56:47Z</time>
      </trkpt>
      <trkpt lat="43.53702" lon="5.32024">
        <ele>235.4</ele>
        <time>2021-10-19T12:56:57Z</time>
      </trkpt>
      <trkpt lat="43.53703" lon="5.32021">
        <ele>225.7</ele>
        <time>2021-10-19T12:57:07Z</time>
      </trkpt>
      <trkpt lat="43.53702" lon="5.3202">
        <ele>238.3</ele>
        <time>2021-10-19T12:57:18Z</time>
      </trkpt>
      <trkpt lat="43.53704" lon="5.32021">
        <ele>235.5</ele>
        <time>2021-10-19T12:57:29Z</time>
      </trkpt>
      <trkpt lat="43.53704" lon="5.32022">
        <ele>254.8</ele>
        <time>2021-10-19T12:57:39Z</time>
      </trkpt>
      <trkpt lat="43.53702" lon="5.3202">
        <ele>242.4</ele>
        <time>2021-10-19T12:57:50Z</time>
      </trkpt>
      <trkpt lat="43.53701" lon="5.32018">
        <ele>240.8</ele>
        <time>2021-10-19T12:58:01Z</time>
      </trkpt>
      <trkpt lat="43.53701" lon="5.32018">
        <ele>252.5</ele>
        <time>2021-10-19T12:58:11Z</time>
      </trkpt>
      <trkpt lat="43.53701" lon="5.32018">
        <ele>256</ele>
        <time>2021-10-19T12:58:21Z</time>
      </trkpt>
      <trkpt lat="43.53701" lon="5.32018">
        <ele>248.7</ele>
        <time>2021-10-19T12:58:31Z</time>
      </trkpt>
      <trkpt lat="43.53701" lon="5.32018">
        <ele>255.3</ele>
        <time>2021-10-19T12:58:41Z</time>
      </trkpt>
      <trkpt lat="43.53701" lon="5.32018">
        <ele>264.2</ele>
        <time>2021-10-19T12:58:52Z</time>
      </trkpt>
      <trkpt lat="43.53702" lon="5.32019">
        <ele>244.2</ele>
        <time>2021-10-19T12:59:02Z</time>
      </trkpt>
      <trkpt lat="43.537" lon="5.32017">
        <ele>228.6</ele>
        <time>2021-10-19T12:59:12Z</time>
      </trkpt>
      <trkpt lat="43.53698" lon="5.32001">
        <ele>226.8</ele>
        <time>2021-10-19T12:59:22Z</time>
      </trkpt>
      <trkpt lat="43.53696" lon="5.31992">
        <ele>235.2</ele>
        <time>2021-10-19T12:59:32Z</time>
      </trkpt>
      <trkpt lat="43.53695" lon="5.31982">
        <ele>251.5</ele>
        <time>2021-10-19T12:59:43Z</time>
      </trkpt>
      <trkpt lat="43.53701" lon="5.31978">
        <ele>256.4</ele>
        <time>2021-10-19T12:59:54Z</time>
      </trkpt>
      <trkpt lat="43.53707" lon="5.31977">
        <ele>238.3</ele>
        <time>2021-10-19T13:00:04Z</time>
      </trkpt>
      <trkpt lat="43.53714" lon="5.31978">
        <ele>267.3</ele>
        <time>2021-10-19T13:00:14Z</time>
      </trkpt>
      <trkpt lat="43.53722" lon="5.31974">
        <ele>246.3</ele>
        <time>2021-10-19T13:00:25Z</time>
      </trkpt>
      <trkpt lat="43.53728" lon="5.31965">
        <ele>255.6</ele>
        <time>2021-10-19T13:00:36Z</time>
      </trkpt>
      <trkpt lat="43.53734" lon="5.31957">
        <ele>235.7</ele>
        <time>2021-10-19T13:00:46Z</time>
      </trkpt>
      <trkpt lat="43.5374" lon="5.31947">
        <ele>258.7</ele>
        <time>2021-10-19T13:00:57Z</time>
      </trkpt>
      <trkpt lat="43.53747" lon="5.31937">
        <ele>256.4</ele>
        <time>2021-10-19T13:01:07Z</time>
      </trkpt>
      <trkpt lat="43.53752" lon="5.31927">
        <ele>262.4</ele>
        <time>2021-10-19T13:01:18Z</time>
      </trkpt>
      <trkpt lat="43.53759" lon="5.31917">
        <ele>262.5</ele>
        <time>2021-10-19T13:01:29Z</time>
      </trkpt>
      <trkpt lat="43.53763" lon="5.31909">
        <ele>268.1</ele>
        <time>2021-10-19T13:01:39Z</time>
      </trkpt>
      <trkpt lat="43.53768" lon="5.31901">
        <ele>268</ele>
        <time>2021-10-19T13:01:50Z</time>
      </trkpt>
      <trkpt lat="43.53774" lon="5.31892">
        <ele>279</ele>
        <time>2021-10-19T13:02:00Z</time>
      </trkpt>
      <trkpt lat="43.53778" lon="5.31882">
        <ele>252.5</ele>
        <time>2021-10-19T13:02:10Z</time>
      </trkpt>
      <trkpt lat="43.53781" lon="5.3187">
        <ele>260.6</ele>
        <time>2021-10-19T13:02:21Z</time>
      </trkpt>
      <trkpt lat="43.53786" lon="5.31858">
        <ele>264.6</ele>
        <time>2021-10-19T13:02:32Z</time>
      </trkpt>
      <trkpt lat="43.5379" lon="5.31849">
        <ele>263.2</ele>
        <time>2021-10-19T13:02:42Z</time>
      </trkpt>
      <trkpt lat="43.53795" lon="5.31839">
        <ele>271.6</ele>
        <time>2021-10-19T13:02:53Z</time>
      </trkpt>
      <trkpt lat="43.538" lon="5.31829">
        <ele>253.8</ele>
        <time>2021-10-19T13:03:03Z</time>
      </trkpt>
      <trkpt lat="43.53806" lon="5.3182">
        <ele>278.3</ele>
        <time>2021-10-19T13:03:13Z</time>
      </trkpt>
      <trkpt lat="43.53813" lon="5.31809">
        <ele>257.8</ele>
        <time>2021-10-19T13:03:24Z</time>
      </trkpt>
      <trkpt lat="43.53817" lon="5.318">
        <ele>257.4</ele>
        <time>2021-10-19T13:03:35Z</time>
      </trkpt>
      <trkpt lat="43.53823" lon="5.31792">
        <ele>261.1</ele>
        <time>2021-10-19T13:03:45Z</time>
      </trkpt>
      <trkpt lat="43.53823" lon="5.31792">
        <ele>273</ele>
        <time>2021-10-19T13:03:55Z</time>
      </trkpt>
      <trkpt lat="43.53823" lon="5.31792">
        <ele>264.2</ele>
        <time>2021-10-19T13:04:05Z</time>
      </trkpt>
      <trkpt lat="43.5383" lon="5.31782">
        <ele>262.2</ele>
        <time>2021-10-19T13:04:16Z</time>
      </trkpt>
      <trkpt lat="43.53834" lon="5.31771">
        <ele>244.7</ele>
        <time>2021-10-19T13:04:27Z</time>
      </trkpt>
      <trkpt lat="43.53837" lon="5.31759">
        <ele>270.1</ele>
        <time>2021-10-19T13:04:38Z</time>
      </trkpt>
      <trkpt lat="43.53842" lon="5.31749">
        <ele>253.2</ele>
        <time>2021-10-19T13:04:48Z</time>
      </trkpt>
      <trkpt lat="43.53849" lon="5.3174">
        <ele>267.1</ele>
        <time>2021-10-19T13:04:59Z</time>
      </trkpt>
      <trkpt lat="43.53856" lon="5.3173">
        <ele>255.8</ele>
        <time>2021-10-19T13:05:10Z</time>
      </trkpt>
      <trkpt lat="43.53864" lon="5.31721">
        <ele>267.8</ele>
        <time>2021-10-19T13:05:20Z</time>
      </trkpt>
      <trkpt lat="43.53866" lon="5.3171">
        <ele>252.2</ele>
        <time>2021-10-19T13:05:31Z</time>
      </trkpt>
      <trkpt lat="43.53868" lon="5.31698">
        <ele>282.4</ele>
        <time>2021-10-19T13:05:41Z</time>
      </trkpt>
      <trkpt lat="43.53872" lon="5.31687">
        <ele>254.8</ele>
        <time>2021-10-19T13:05:51Z</time>
      </trkpt>
      <trkpt lat="43.53876" lon="5.31675">
        <ele>252.5</ele>
        <time>2021-10-19T13:06:01Z</time>
      </trkpt>
      <trkpt lat="43.53882" lon="5.31663">
        <ele>279.6</ele>
        <time>2021-10-19T13:06:12Z</time>
      </trkpt>
      <trkpt lat="43.53889" lon="5.31651">
        <ele>274.3</ele>
        <time>2021-10-19T13:06:23Z</time>
      </trkpt>
      <trkpt lat="43.53897" lon="5.3164">
        <ele>291.5</ele>
        <time>2021-10-19T13:06:34Z</time>
      </trkpt>
      <trkpt lat="43.53904" lon="5.31631">
        <ele>285.9</ele>
        <time>2021-10-19T13:06:45Z</time>
      </trkpt>
      <trkpt lat="43.53912" lon="5.31624">
        <ele>273.3</ele>
        <time>2021-10-19T13:06:55Z</time>
      </trkpt>
      <trkpt lat="43.5392" lon="5.3162">
        <ele>276.2</ele>
        <time>2021-10-19T13:07:05Z</time>
      </trkpt>
      <trkpt lat="43.5393" lon="5.31614">
        <ele>267.2</ele>
        <time>2021-10-19T13:07:15Z</time>
      </trkpt>
      <trkpt lat="43.53932" lon="5.31611">
        <ele>267.9</ele>
        <time>2021-10-19T13:07:26Z</time>
      </trkpt>
      <trkpt lat="43.53932" lon="5.31611">
        <ele>263.4</ele>
        <time>2021-10-19T13:07:36Z</time>
      </trkpt>
      <trkpt lat="43.53937" lon="5.31603">
        <ele>270.2</ele>
        <time>2021-10-19T13:07:46Z</time>
      </trkpt>
      <trkpt lat="43.53937" lon="5.31598">
        <ele>286.9</ele>
        <time>2021-10-19T13:07:56Z</time>
      </trkpt>
      <trkpt lat="43.53937" lon="5.31597">
        <ele>243.4</ele>
        <time>2021-10-19T13:08:07Z</time>
      </trkpt>
      <trkpt lat="43.5394" lon="5.31593">
        <ele>277.4</ele>
        <time>2021-10-19T13:08:18Z</time>
      </trkpt>
      <trkpt lat="43.53944" lon="5.31579">
        <ele>272.1</ele>
        <time>2021-10-19T13:08:29Z</time>
      </trkpt>
      <trkpt lat="43.53944" lon="5.31563">
        <ele>267.5</ele>
        <time>2021-10-19T13:08:40Z</time>
      </trkpt>
      <trkpt lat="43.53936" lon="5.31551">
        <ele>280.3</ele>
        <time>2021-10-19T13:08:51Z</time>
      </trkpt>
      <trkpt lat="43.53931" lon="5.31539">
        <ele>276.7</ele>
        <time>2021-10-19T13:09:01Z</time>
      </trkpt>
      <trkpt lat="43.53928" lon="5.31524">
        <ele>267.4</ele>
        <time>2021-10-19T13:09:12Z</time>
      </trkpt>
      <trkpt lat="43.53929" lon="5.31508">
        <ele>268.6</ele>
        <time>2021-10-19T13:09:23Z</time>
      </trkpt>
      <trkpt lat="43.5393" lon="5.31493">
        <ele>262.2</ele>
        <time>2021-10-19T13:09:33Z</time>
      </trkpt>
      <trkpt lat="43.53929" lon="5.31478">
        <ele>259.5</ele>
        <time>2021-10-19T13:09:43Z</time>
      </trkpt>
      <trkpt lat="43.53927" lon="5.3146">
        <ele>256.4</ele>
        <time>2021-10-19T13:09:53Z</time>
      </trkpt>
      <trkpt lat="43.53924" lon="5.31447">
        <ele>267</ele>
        <time>2021-10-19T13:10:04Z</time>
      </trkpt>
      <trkpt lat="43.5392" lon="5.31437">
        <ele>280.4</ele>
        <time>2021-10-19T13:10:15Z</time>
      </trkpt>
      <trkpt lat="43.53917" lon="5.31426">
        <ele>261</ele>
        <time>2021-10-19T13:10:25Z</time>
      </trkpt>
      <trkpt lat="43.53914" lon="5.31411">
        <ele>287.9</ele>
        <time>2021-10-19T13:10:36Z</time>
      </trkpt>
      <trkpt lat="43.53912" lon="5.314">
        <ele>260</ele>
        <time>2021-10-19T13:10:47Z</time>
      </trkpt>
      <trkpt lat="43.53912" lon="5.31399">
        <ele>269.5</ele>
        <time>2021-10-19T13:10:57Z</time>
      </trkpt>
      <trkpt lat="43.53914" lon="5.31393">
        <ele>262.9</ele>
        <time>2021-10-19T13:11:08Z</time>
      </trkpt>
      <trkpt lat="43.5391" lon="5.31379">
        <ele>277.3</ele>
        <time>2021-10-19T13:11:19Z</time>
      </trkpt>
      <trkpt lat="43.53908" lon="5.31367">
        <ele>256.9</ele>
        <time>2021-10-19T13:11:29Z</time>
      </trkpt>
      <trkpt lat="43.539" lon="5.31352">
        <ele>268.2</ele>
        <time>2021-10-19T13:11:40Z</time>
      </trkpt>
      <trkpt lat="43.53894" lon="5.31341">
        <ele>270.9</ele>
        <time>2021-10-19T13:11:51Z</time>
      </trkpt>
      <trkpt lat="43.53888" lon="5.3133">
        <ele>262.6</ele>
        <time>2021-10-19T13:12:01Z</time>
      </trkpt>
      <trkpt lat="43.53881" lon="5.3132">
        <ele>266.2</ele>
        <time>2021-10-19T13:12:11Z</time>
      </trkpt>
      <trkpt lat="43.53873" lon="5.31311">
        <ele>254</ele>
        <time>2021-10-19T13:12:21Z</time>
      </trkpt>
      <trkpt lat="43.53865" lon="5.313">
        <ele>274.9</ele>
        <time>2021-10-19T13:12:32Z</time>
      </trkpt>
      <trkpt lat="43.5386" lon="5.31288">
        <ele>253.9</ele>
        <time>2021-10-19T13:12:43Z</time>
      </trkpt>
      <trkpt lat="43.53857" lon="5.31274">
        <ele>254.3</ele>
        <time>2021-10-19T13:12:53Z</time>
      </trkpt>
      <trkpt lat="43.53856" lon="5.31261">
        <ele>262.8</ele>
        <time>2021-10-19T13:13:03Z</time>
      </trkpt>
      <trkpt lat="43.53855" lon="5.31247">
        <ele>274.1</ele>
        <time>2021-10-19T13:13:14Z</time>
      </trkpt>
      <trkpt lat="43.53852" lon="5.31233">
        <ele>248.7</ele>
        <time>2021-10-19T13:13:24Z</time>
      </trkpt>
      <trkpt lat="43.53847" lon="5.31219">
        <ele>275</ele>
        <time>2021-10-19T13:13:35Z</time>
      </trkpt>
      <trkpt lat="43.53841" lon="5.31204">
        <ele>263.4</ele>
        <time>2021-10-19T13:13:46Z</time>
      </trkpt>
      <trkpt lat="43.53834" lon="5.31201">
        <ele>283.4</ele>
        <time>2021-10-19T13:13:56Z</time>
      </trkpt>
      <trkpt lat="43.5384" lon="5.31203">
        <ele>252.1</ele>
        <time>2021-10-19T13:14:07Z</time>
      </trkpt>
      <trkpt lat="43.53843" lon="5.31192">
        <ele>250.6</ele>
        <time>2021-10-19T13:14:17Z</time>
      </trkpt>
      <trkpt lat="43.53846" lon="5.31179">
        <ele>271.1</ele>
        <time>2021-10-19T13:14:28Z</time>
      </trkpt>
      <trkpt lat="43.53853" lon="5.31169">
        <ele>242.1</ele>
        <time>2021-10-19T13:14:39Z</time>
      </trkpt>
      <trkpt lat="43.53854" lon="5.31161">
        <ele>274.2</ele>
        <time>2021-10-19T13:14:49Z</time>
      </trkpt>
      <trkpt lat="43.53856" lon="5.31161">
        <ele>261.2</ele>
        <time>2021-10-19T13:14:59Z</time>
      </trkpt>
      <trkpt lat="43.53857" lon="5.3116">
        <ele>250</ele>
        <time>2021-10-19T13:15:10Z</time>
      </trkpt>
      <trkpt lat="43.53855" lon="5.3116">
        <ele>268.9</ele>
        <time>2021-10-19T13:15:20Z</time>
      </trkpt>
      <trkpt lat="43.53859" lon="5.31163">
        <ele>244.6</ele>
        <time>2021-10-19T13:15:31Z</time>
      </trkpt>
      <trkpt lat="43.53872" lon="5.31165">
        <ele>241.5</ele>
        <time>2021-10-19T13:15:42Z</time>
      </trkpt>
      <trkpt lat="43.53879" lon="5.31165">
        <ele>275.5</ele>
        <time>2021-10-19T13:15:52Z</time>
      </trkpt>
      <trkpt lat="43.53888" lon="5.31166">
        <ele>254.4</ele>
        <time>2021-10-19T13:16:02Z</time>
      </trkpt>
      <trkpt lat="43.53896" lon="5.31167">
        <ele>257.7</ele>
        <time>2021-10-19T13:16:13Z</time>
      </trkpt>
      <trkpt lat="43.53906" lon="5.31167">
        <ele>238.1</ele>
        <time>2021-10-19T13:16:23Z</time>
      </trkpt>
      <trkpt lat="43.53918" lon="5.31164">
        <ele>237.6</ele>
        <time>2021-10-19T13:16:34Z</time>
      </trkpt>
      <trkpt lat="43.53918" lon="5.31164">
        <ele>251.4</ele>
        <time>2021-10-19T13:16:44Z</time>
      </trkpt>
      <trkpt lat="43.53917" lon="5.31164">
        <ele>264</ele>
        <time>2021-10-19T13:16:54Z</time>
      </trkpt>
      <trkpt lat="43.53916" lon="5.31162">
        <ele>245.5</ele>
        <time>2021-10-19T13:17:04Z</time>
      </trkpt>
      <trkpt lat="43.53915" lon="5.31162">
        <ele>269</ele>
        <time>2021-10-19T13:17:15Z</time>
      </trkpt>
      <trkpt lat="43.53917" lon="5.31161">
        <ele>247.2</ele>
        <time>2021-10-19T13:17:26Z</time>
      </trkpt>
      <trkpt lat="43.53925" lon="5.3116">
        <ele>259.8</ele>
        <time>2021-10-19T13:17:36Z</time>
      </trkpt>
      <trkpt lat="43.53934" lon="5.31161">
        <ele>246.9</ele>
        <time>2021-10-19T13:17:47Z</time>
      </trkpt>
      <trkpt lat="43.53942" lon="5.31164">
        <ele>249.7</ele>
        <time>2021-10-19T13:17:58Z</time>
      </trkpt>
      <trkpt lat="43.5395" lon="5.31168">
        <ele>251</ele>
        <time>2021-10-19T13:18:08Z</time>
      </trkpt>
      <trkpt lat="43.5395" lon="5.3117">
        <ele>233.7</ele>
        <time>2021-10-19T13:18:18Z</time>
      </trkpt>
      <trkpt lat="43.53952" lon="5.31171">
        <ele>249.3</ele>
        <time>2021-10-19T13:18:28Z</time>
      </trkpt>
      <trkpt lat="43.53956" lon="5.31174">
        <ele>241.8</ele>
        <time>2021-10-19T13:18:38Z</time>
      </trkpt>
      <trkpt lat="43.53963" lon="5.31178">
        <ele>256.4</ele>
        <time>2021-10-19T13:18:48Z</time>
      </trkpt>
      <trkpt lat="43.53971" lon="5.31181">
        <ele>247.7</ele>
        <time>2021-10-19T13:18:59Z</time>
      </trkpt>
      <trkpt lat="43.53979" lon="5.31187">
        <ele>265.8</ele>
        <time>2021-10-19T13:19:09Z</time>
      </trkpt>
      <trkpt lat="43.53983" lon="5.31193">
        <ele>256.9</ele>
        <time>2021-10-19T13:19:19Z</time>
      </trkpt>
      <trkpt lat="43.53988" lon="5.31199">
        <ele>234.8</ele>
        <time>2021-10-19T13:19:29Z</time>
      </trkpt>
      <trkpt lat="43.53992" lon="5.31199">
        <ele>247</ele>
        <time>2021-10-19T13:19:40Z</time>
      </trkpt>
      <trkpt lat="43.53994" lon="5.31198">
        <ele>240.6</ele>
        <time>2021-10-19T13:19:51Z</time>
      </trkpt>
      <trkpt lat="43.53993" lon="5.31198">
        <ele>239</ele>
        <time>2021-10-19T13:20:02Z</time>
      </trkpt>
      <trkpt lat="43.53993" lon="5.31198">
        <ele>242.4</ele>
        <time>2021-10-19T13:20:13Z</time>
      </trkpt>
      <trkpt lat="43.53991" lon="5.31188">
        <ele>220.7</ele>
        <time>2021-10-19T13:20:23Z</time>
      </trkpt>
      <trkpt lat="43.53991" lon="5.31185">
        <ele>241.5</ele>
        <time>2021-10-19T13:20:34Z</time>
      </trkpt>
      <trkpt lat="43.5399" lon="5.31185">
        <ele>225.1</ele>
        <time>2021-10-19T13:20:45Z</time>
      </trkpt>
      <trkpt lat="43.5399" lon="5.31184">
        <ele>254.9</ele>
        <time>2021-10-19T13:20:55Z</time>
      </trkpt>
      <trkpt lat="43.53988" lon="5.31177">
        <ele>258.2</ele>
        <time>2021-10-19T13:21:06Z</time>
      </trkpt>
      <trkpt lat="43.53987" lon="5.31165">
        <ele>222.4</ele>
        <time>2021-10-19T13:21:16Z</time>
      </trkpt>
      <trkpt lat="43.53985" lon="5.31155">
        <ele>227.2</ele>
        <time>2021-10-19T13:21:27Z</time>
      </trkpt>
      <trkpt lat="43.5398" lon="5.31143">
        <ele>242.3</ele>
        <time>2021-10-19T13:21:38Z</time>
      </trkpt>
      <trkpt lat="43.53978" lon="5.31128">
        <ele>228.7</ele>
        <time>2021-10-19T13:21:49Z</time>
      </trkpt>
      <trkpt lat="43.53976" lon="5.31115">
        <ele>241</ele>
        <time>2021-10-19T13:21:59Z</time>
      </trkpt>
      <trkpt lat="43.53973" lon="5.31101">
        <ele>230.5</ele>
        <time>2021-10-19T13:22:10Z</time>
      </trkpt>
      <trkpt lat="43.5397" lon="5.31092">
        <ele>233.7</ele>
        <time>2021-10-19T13:22:20Z</time>
      </trkpt>
      <trkpt lat="43.53966" lon="5.31079">
        <ele>224.3</ele>
        <time>2021-10-19T13:22:31Z</time>
      </trkpt>
      <trkpt lat="43.53965" lon="5.31071">
        <ele>214.9</ele>
        <time>2021-10-19T13:22:41Z</time>
      </trkpt>
      <trkpt lat="43.53966" lon="5.31071">
        <ele>227.7</ele>
        <time>2021-10-19T13:22:53Z</time>
      </trkpt>
      <trkpt lat="43.53966" lon="5.31069">
        <ele>226.6</ele>
        <time>2021-10-19T13:23:03Z</time>
      </trkpt>
      <trkpt lat="43.53965" lon="5.3106">
        <ele>233.9</ele>
        <time>2021-10-19T13:23:14Z</time>
      </trkpt>
      <trkpt lat="43.53965" lon="5.31052">
        <ele>212</ele>
        <time>2021-10-19T13:23:25Z</time>
      </trkpt>
      <trkpt lat="43.53965" lon="5.31052">
        <ele>228.8</ele>
        <time>2021-10-19T13:23:35Z</time>
      </trkpt>
      <trkpt lat="43.5397" lon="5.31052">
        <ele>225</ele>
        <time>2021-10-19T13:23:45Z</time>
      </trkpt>
      <trkpt lat="43.53963" lon="5.31041">
        <ele>224.3</ele>
        <time>2021-10-19T13:23:56Z</time>
      </trkpt>
      <trkpt lat="43.53958" lon="5.31039">
        <ele>221.8</ele>
        <time>2021-10-19T13:24:07Z</time>
      </trkpt>
      <trkpt lat="43.5396" lon="5.31037">
        <ele>224.7</ele>
        <time>2021-10-19T13:24:17Z</time>
      </trkpt>
      <trkpt lat="43.53966" lon="5.31033">
        <ele>220.8</ele>
        <time>2021-10-19T13:24:27Z</time>
      </trkpt>
      <trkpt lat="43.53971" lon="5.31024">
        <ele>217.4</ele>
        <time>2021-10-19T13:24:37Z</time>
      </trkpt>
      <trkpt lat="43.53977" lon="5.31013">
        <ele>205.6</ele>
        <time>2021-10-19T13:24:48Z</time>
      </trkpt>
      <trkpt lat="43.53981" lon="5.31003">
        <ele>210.8</ele>
        <time>2021-10-19T13:24:58Z</time>
      </trkpt>
      <trkpt lat="43.53985" lon="5.30992">
        <ele>218</ele>
        <time>2021-10-19T13:25:09Z</time>
      </trkpt>
      <trkpt lat="43.53989" lon="5.3098">
        <ele>218.5</ele>
        <time>2021-10-19T13:25:20Z</time>
      </trkpt>
      <trkpt lat="43.53994" lon="5.3097">
        <ele>218.7</ele>
        <time>2021-10-19T13:25:30Z</time>
      </trkpt>
      <trkpt lat="43.54003" lon="5.30969">
        <ele>208.3</ele>
        <time>2021-10-19T13:25:41Z</time>
      </trkpt>
      <trkpt lat="43.54011" lon="5.30981">
        <ele>210.6</ele>
        <time>2021-10-19T13:25:52Z</time>
      </trkpt>
      <trkpt lat="43.54015" lon="5.30993">
        <ele>210.6</ele>
        <time>2021-10-19T13:26:02Z</time>
      </trkpt>
      <trkpt lat="43.54021" lon="5.31007">
        <ele>209.7</ele>
        <time>2021-10-19T13:26:13Z</time>
      </trkpt>
      <trkpt lat="43.54027" lon="5.31018">
        <ele>216.4</ele>
        <time>2021-10-19T13:26:24Z</time>
      </trkpt>
      <trkpt lat="43.54032" lon="5.3103">
        <ele>218.4</ele>
        <time>2021-10-19T13:26:34Z</time>
      </trkpt>
      <trkpt lat="43.54038" lon="5.31041">
        <ele>229</ele>
        <time>2021-10-19T13:26:45Z</time>
      </trkpt>
      <trkpt lat="43.54043" lon="5.31053">
        <ele>212</ele>
        <time>2021-10-19T13:26:56Z</time>
      </trkpt>
      <trkpt lat="43.5405" lon="5.31062">
        <ele>223.9</ele>
        <time>2021-10-19T13:27:07Z</time>
      </trkpt>
      <trkpt lat="43.54053" lon="5.31073">
        <ele>210.6</ele>
        <time>2021-10-19T13:27:17Z</time>
      </trkpt>
      <trkpt lat="43.54057" lon="5.31084">
        <ele>228.5</ele>
        <time>2021-10-19T13:27:27Z</time>
      </trkpt>
      <trkpt lat="43.5406" lon="5.31094">
        <ele>216.8</ele>
        <time>2021-10-19T13:27:38Z</time>
      </trkpt>
      <trkpt lat="43.54065" lon="5.31111">
        <ele>223.2</ele>
        <time>2021-10-19T13:27:49Z</time>
      </trkpt>
      <trkpt lat="43.54066" lon="5.31125">
        <ele>223.5</ele>
        <time>2021-10-19T13:27:59Z</time>
      </trkpt>
      <trkpt lat="43.54068" lon="5.3114">
        <ele>220.3</ele>
        <time>2021-10-19T13:28:10Z</time>
      </trkpt>
      <trkpt lat="43.54071" lon="5.31154">
        <ele>214.5</ele>
        <time>2021-10-19T13:28:21Z</time>
      </trkpt>
      <trkpt lat="43.54075" lon="5.31169">
        <ele>216</ele>
        <time>2021-10-19T13:28:32Z</time>
      </trkpt>
      <trkpt lat="43.54078" lon="5.3118">
        <ele>217.8</ele>
        <time>2021-10-19T13:28:42Z</time>
      </trkpt>
      <trkpt lat="43.54083" lon="5.31194">
        <ele>225.1</ele>
        <time>2021-10-19T13:28:53Z</time>
      </trkpt>
      <trkpt lat="43.54089" lon="5.31204">
        <ele>221.6</ele>
        <time>2021-10-19T13:29:04Z</time>
      </trkpt>
      <trkpt lat="43.54094" lon="5.31213">
        <ele>217</ele>
        <time>2021-10-19T13:29:14Z</time>
      </trkpt>
      <trkpt lat="43.54098" lon="5.31223">
        <ele>218.3</ele>
        <time>2021-10-19T13:29:25Z</time>
      </trkpt>
      <trkpt lat="43.54104" lon="5.31234">
        <ele>225.6</ele>
        <time>2021-10-19T13:29:36Z</time>
      </trkpt>
      <trkpt lat="43.54109" lon="5.31244">
        <ele>219.6</ele>
        <time>2021-10-19T13:29:46Z</time>
      </trkpt>
      <trkpt lat="43.54115" lon="5.31253">
        <ele>226.8</ele>
        <time>2021-10-19T13:29:56Z</time>
      </trkpt>
      <trkpt lat="43.54122" lon="5.31264">
        <ele>212.1</ele>
        <time>2021-10-19T13:30:07Z</time>
      </trkpt>
      <trkpt lat="43.54125" lon="5.3127">
        <ele>222.3</ele>
        <time>2021-10-19T13:30:17Z</time>
      </trkpt>
      <trkpt lat="43.54126" lon="5.31273">
        <ele>212.4</ele>
        <time>2021-10-19T13:30:27Z</time>
      </trkpt>
      <trkpt lat="43.54125" lon="5.31277">
        <ele>231</ele>
        <time>2021-10-19T13:30:38Z</time>
      </trkpt>
      <trkpt lat="43.54129" lon="5.31282">
        <ele>228.5</ele>
        <time>2021-10-19T13:30:48Z</time>
      </trkpt>
      <trkpt lat="43.54135" lon="5.31292">
        <ele>212.3</ele>
        <time>2021-10-19T13:30:59Z</time>
      </trkpt>
      <trkpt lat="43.54136" lon="5.31299">
        <ele>224.5</ele>
        <time>2021-10-19T13:31:09Z</time>
      </trkpt>
      <trkpt lat="43.54142" lon="5.31308">
        <ele>221</ele>
        <time>2021-10-19T13:31:20Z</time>
      </trkpt>
      <trkpt lat="43.54146" lon="5.31322">
        <ele>220.7</ele>
        <time>2021-10-19T13:31:31Z</time>
      </trkpt>
      <trkpt lat="43.5415" lon="5.31333">
        <ele>219.8</ele>
        <time>2021-10-19T13:31:41Z</time>
      </trkpt>
      <trkpt lat="43.54153" lon="5.31346">
        <ele>239.7</ele>
        <time>2021-10-19T13:31:52Z</time>
      </trkpt>
      <trkpt lat="43.54157" lon="5.31359">
        <ele>214.8</ele>
        <time>2021-10-19T13:32:03Z</time>
      </trkpt>
      <trkpt lat="43.54159" lon="5.3137">
        <ele>230.2</ele>
        <time>2021-10-19T13:32:14Z</time>
      </trkpt>
      <trkpt lat="43.54159" lon="5.31387">
        <ele>229.6</ele>
        <time>2021-10-19T13:32:25Z</time>
      </trkpt>
      <trkpt lat="43.54163" lon="5.31401">
        <ele>227.4</ele>
        <time>2021-10-19T13:32:36Z</time>
      </trkpt>
      <trkpt lat="43.54165" lon="5.31411">
        <ele>221.4</ele>
        <time>2021-10-19T13:32:46Z</time>
      </trkpt>
      <trkpt lat="43.54167" lon="5.3142">
        <ele>216.2</ele>
        <time>2021-10-19T13:32:56Z</time>
      </trkpt>
      <trkpt lat="43.54169" lon="5.31433">
        <ele>214.2</ele>
        <time>2021-10-19T13:33:06Z</time>
      </trkpt>
      <trkpt lat="43.54172" lon="5.31444">
        <ele>217.3</ele>
        <time>2021-10-19T13:33:17Z</time>
      </trkpt>
      <trkpt lat="43.54173" lon="5.31454">
        <ele>224.4</ele>
        <time>2021-10-19T13:33:27Z</time>
      </trkpt>
      <trkpt lat="43.54175" lon="5.31468">
        <ele>208.3</ele>
        <time>2021-10-19T13:33:38Z</time>
      </trkpt>
      <trkpt lat="43.54178" lon="5.31481">
        <ele>211</ele>
        <time>2021-10-19T13:33:49Z</time>
      </trkpt>
      <trkpt lat="43.54181" lon="5.31493">
        <ele>226.6</ele>
        <time>2021-10-19T13:33:59Z</time>
      </trkpt>
      <trkpt lat="43.54183" lon="5.31507">
        <ele>232.8</ele>
        <time>2021-10-19T13:34:10Z</time>
      </trkpt>
      <trkpt lat="43.54185" lon="5.31521">
        <ele>228.3</ele>
        <time>2021-10-19T13:34:21Z</time>
      </trkpt>
      <trkpt lat="43.5419" lon="5.31534">
        <ele>193.9</ele>
        <time>2021-10-19T13:34:31Z</time>
      </trkpt>
      <trkpt lat="43.54192" lon="5.31547">
        <ele>225.9</ele>
        <time>2021-10-19T13:34:41Z</time>
      </trkpt>
      <trkpt lat="43.54194" lon="5.31558">
        <ele>237.7</ele>
        <time>2021-10-19T13:34:51Z</time>
      </trkpt>
      <trkpt lat="43.54197" lon="5.31571">
        <ele>215.7</ele>
        <time>2021-10-19T13:35:02Z</time>
      </trkpt>
      <trkpt lat="43.54199" lon="5.31585">
        <ele>209.7</ele>
        <time>2021-10-19T13:35:12Z</time>
      </trkpt>
      <trkpt lat="43.54202" lon="5.316">
        <ele>200.3</ele>
        <time>2021-10-19T13:35:22Z</time>
      </trkpt>
      <trkpt lat="43.54206" lon="5.31605">
        <ele>210.8</ele>
        <time>2021-10-19T13:35:32Z</time>
      </trkpt>
      <trkpt lat="43.54212" lon="5.31615">
        <ele>224.2</ele>
        <time>2021-10-19T13:35:43Z</time>
      </trkpt>
      <trkpt lat="43.54213" lon="5.31626">
        <ele>202</ele>
        <time>2021-10-19T13:35:54Z</time>
      </trkpt>
      <trkpt lat="43.54208" lon="5.31638">
        <ele>221.6</ele>
        <time>2021-10-19T13:36:05Z</time>
      </trkpt>
      <trkpt lat="43.54204" lon="5.31645">
        <ele>211.7</ele>
        <time>2021-10-19T13:36:15Z</time>
      </trkpt>
      <trkpt lat="43.54199" lon="5.31656">
        <ele>217.4</ele>
        <time>2021-10-19T13:36:25Z</time>
      </trkpt>
      <trkpt lat="43.54193" lon="5.31667">
        <ele>225.3</ele>
        <time>2021-10-19T13:36:35Z</time>
      </trkpt>
      <trkpt lat="43.5419" lon="5.31677">
        <ele>211.9</ele>
        <time>2021-10-19T13:36:45Z</time>
      </trkpt>
      <trkpt lat="43.5419" lon="5.31686">
        <ele>208.2</ele>
        <time>2021-10-19T13:36:56Z</time>
      </trkpt>
      <trkpt lat="43.54188" lon="5.31694">
        <ele>213.5</ele>
        <time>2021-10-19T13:37:07Z</time>
      </trkpt>
      <trkpt lat="43.54186" lon="5.31704">
        <ele>222.1</ele>
        <time>2021-10-19T13:37:17Z</time>
      </trkpt>
      <trkpt lat="43.54186" lon="5.31718">
        <ele>199.2</ele>
        <time>2021-10-19T13:37:28Z</time>
      </trkpt>
      <trkpt lat="43.54186" lon="5.31731">
        <ele>197.6</ele>
        <time>2021-10-19T13:37:38Z</time>
      </trkpt>
      <trkpt lat="43.5419" lon="5.31742">
        <ele>198.5</ele>
        <time>2021-10-19T13:37:49Z</time>
      </trkpt>
      <trkpt lat="43.54197" lon="5.31752">
        <ele>193.9</ele>
        <time>2021-10-19T13:37:59Z</time>
      </trkpt>
      <trkpt lat="43.54203" lon="5.31765">
        <ele>211.8</ele>
        <time>2021-10-19T13:38:10Z</time>
      </trkpt>
      <trkpt lat="43.54206" lon="5.31775">
        <ele>210.5</ele>
        <time>2021-10-19T13:38:20Z</time>
      </trkpt>
      <trkpt lat="43.54209" lon="5.31787">
        <ele>199.3</ele>
        <time>2021-10-19T13:38:30Z</time>
      </trkpt>
      <trkpt lat="43.54211" lon="5.31788">
        <ele>198.7</ele>
        <time>2021-10-19T13:38:41Z</time>
      </trkpt>
      <trkpt lat="43.54211" lon="5.31787">
        <ele>212.4</ele>
        <time>2021-10-19T13:38:51Z</time>
      </trkpt>
      <trkpt lat="43.5421" lon="5.31789">
        <ele>194.5</ele>
        <time>2021-10-19T13:39:02Z</time>
      </trkpt>
      <trkpt lat="43.5421" lon="5.31789">
        <ele>197.8</ele>
        <time>2021-10-19T13:39:12Z</time>
      </trkpt>
      <trkpt lat="43.54212" lon="5.31792">
        <ele>213.3</ele>
        <time>2021-10-19T13:39:23Z</time>
      </trkpt>
      <trkpt lat="43.54212" lon="5.31799">
        <ele>204.8</ele>
        <time>2021-10-19T13:39:33Z</time>
      </trkpt>
      <trkpt lat="43.54212" lon="5.31805">
        <ele>187.7</ele>
        <time>2021-10-19T13:39:43Z</time>
      </trkpt>
      <trkpt lat="43.54214" lon="5.31816">
        <ele>201.9</ele>
        <time>2021-10-19T13:39:54Z</time>
      </trkpt>
      <trkpt lat="43.54217" lon="5.31827">
        <ele>206.5</ele>
        <time>2021-10-19T13:40:04Z</time>
      </trkpt>
      <trkpt lat="43.54221" lon="5.31837">
        <ele>198.1</ele>
        <time>2021-10-19T13:40:15Z</time>
      </trkpt>
      <trkpt lat="43.54226" lon="5.31848">
        <ele>204.5</ele>
        <time>2021-10-19T13:40:25Z</time>
      </trkpt>
      <trkpt lat="43.54229" lon="5.3186">
        <ele>204.7</ele>
        <time>2021-10-19T13:40:36Z</time>
      </trkpt>
      <trkpt lat="43.54234" lon="5.31871">
        <ele>206.4</ele>
        <time>2021-10-19T13:40:47Z</time>
      </trkpt>
      <trkpt lat="43.54237" lon="5.31885">
        <ele>183.1</ele>
        <time>2021-10-19T13:40:57Z</time>
      </trkpt>
      <trkpt lat="43.54237" lon="5.31901">
        <ele>195.8</ele>
        <time>2021-10-19T13:41:07Z</time>
      </trkpt>
      <trkpt lat="43.54238" lon="5.31918">
        <ele>203.1</ele>
        <time>2021-10-19T13:41:18Z</time>
      </trkpt>
      <trkpt lat="43.54241" lon="5.31931">
        <ele>194.2</ele>
        <time>2021-10-19T13:41:28Z</time>
      </trkpt>
      <trkpt lat="43.54242" lon="5.31947">
        <ele>207.9</ele>
        <time>2021-10-19T13:41:38Z</time>
      </trkpt>
      <trkpt lat="43.54242" lon="5.31964">
        <ele>205.4</ele>
        <time>2021-10-19T13:41:49Z</time>
      </trkpt>
      <trkpt lat="43.54244" lon="5.31978">
        <ele>211.9</ele>
        <time>2021-10-19T13:42:00Z</time>
      </trkpt>
      <trkpt lat="43.54244" lon="5.3199">
        <ele>206</ele>
        <time>2021-10-19T13:42:10Z</time>
      </trkpt>
      <trkpt lat="43.54244" lon="5.32004">
        <ele>206</ele>
        <time>2021-10-19T13:42:21Z</time>
      </trkpt>
      <trkpt lat="43.54245" lon="5.32017">
        <ele>215.3</ele>
        <time>2021-10-19T13:42:31Z</time>
      </trkpt>
      <trkpt lat="43.54246" lon="5.32032">
        <ele>203.3</ele>
        <time>2021-10-19T13:42:42Z</time>
      </trkpt>
      <trkpt lat="43.54248" lon="5.32045">
        <ele>218.2</ele>
        <time>2021-10-19T13:42:52Z</time>
      </trkpt>
      <trkpt lat="43.54248" lon="5.3206">
        <ele>215.9</ele>
        <time>2021-10-19T13:43:03Z</time>
      </trkpt>
      <trkpt lat="43.54249" lon="5.32072">
        <ele>214.9</ele>
        <time>2021-10-19T13:43:13Z</time>
      </trkpt>
      <trkpt lat="43.54252" lon="5.32087">
        <ele>210.3</ele>
        <time>2021-10-19T13:43:24Z</time>
      </trkpt>
      <trkpt lat="43.54254" lon="5.32101">
        <ele>207.5</ele>
        <time>2021-10-19T13:43:35Z</time>
      </trkpt>
      <trkpt lat="43.54256" lon="5.32112">
        <ele>218.4</ele>
        <time>2021-10-19T13:43:46Z</time>
      </trkpt>
      <trkpt lat="43.54262" lon="5.32118">
        <ele>207.2</ele>
        <time>2021-10-19T13:43:56Z</time>
      </trkpt>
      <trkpt lat="43.5427" lon="5.32124">
        <ele>222.4</ele>
        <time>2021-10-19T13:44:07Z</time>
      </trkpt>
      <trkpt lat="43.54275" lon="5.32126">
        <ele>209.9</ele>
        <time>2021-10-19T13:44:18Z</time>
      </trkpt>
      <trkpt lat="43.54276" lon="5.32124">
        <ele>213.4</ele>
        <time>2021-10-19T13:44:28Z</time>
      </trkpt>
      <trkpt lat="43.5428" lon="5.32125">
        <ele>201</ele>
        <time>2021-10-19T13:44:38Z</time>
      </trkpt>
      <trkpt lat="43.5429" lon="5.32131">
        <ele>218.4</ele>
        <time>2021-10-19T13:44:48Z</time>
      </trkpt>
      <trkpt lat="43.54298" lon="5.32138">
        <ele>205.3</ele>
        <time>2021-10-19T13:44:59Z</time>
      </trkpt>
      <trkpt lat="43.54308" lon="5.32149">
        <ele>207.7</ele>
        <time>2021-10-19T13:45:09Z</time>
      </trkpt>
      <trkpt lat="43.54314" lon="5.32159">
        <ele>225.5</ele>
        <time>2021-10-19T13:45:19Z</time>
      </trkpt>
      <trkpt lat="43.54321" lon="5.32169">
        <ele>216.3</ele>
        <time>2021-10-19T13:45:29Z</time>
      </trkpt>
      <trkpt lat="43.54326" lon="5.32179">
        <ele>216.6</ele>
        <time>2021-10-19T13:45:40Z</time>
      </trkpt>
      <trkpt lat="43.54334" lon="5.32189">
        <ele>222.8</ele>
        <time>2021-10-19T13:45:51Z</time>
      </trkpt>
      <trkpt lat="43.54341" lon="5.32199">
        <ele>216.8</ele>
        <time>2021-10-19T13:46:01Z</time>
      </trkpt>
      <trkpt lat="43.54349" lon="5.32213">
        <ele>215.9</ele>
        <time>2021-10-19T13:46:12Z</time>
      </trkpt>
      <trkpt lat="43.54353" lon="5.32225">
        <ele>226.8</ele>
        <time>2021-10-19T13:46:22Z</time>
      </trkpt>
      <trkpt lat="43.54352" lon="5.3224">
        <ele>222.1</ele>
        <time>2021-10-19T13:46:32Z</time>
      </trkpt>
      <trkpt lat="43.54354" lon="5.32255">
        <ele>214.2</ele>
        <time>2021-10-19T13:46:43Z</time>
      </trkpt>
      <trkpt lat="43.54356" lon="5.32268">
        <ele>175.2</ele>
        <time>2021-10-19T13:46:54Z</time>
      </trkpt>
      <trkpt lat="43.54358" lon="5.32283">
        <ele>191</ele>
        <time>2021-10-19T13:47:04Z</time>
      </trkpt>
      <trkpt lat="43.54358" lon="5.32297">
        <ele>205.3</ele>
        <time>2021-10-19T13:47:14Z</time>
      </trkpt>
      <trkpt lat="43.54361" lon="5.32313">
        <ele>199.7</ele>
        <time>2021-10-19T13:47:25Z</time>
      </trkpt>
      <trkpt lat="43.54363" lon="5.32327">
        <ele>212.8</ele>
        <time>2021-10-19T13:47:36Z</time>
      </trkpt>
      <trkpt lat="43.54364" lon="5.32334">
        <ele>204.7</ele>
        <time>2021-10-19T13:47:47Z</time>
      </trkpt>
      <trkpt lat="43.54365" lon="5.32335">
        <ele>218.2</ele>
        <time>2021-10-19T13:47:57Z</time>
      </trkpt>
      <trkpt lat="43.54365" lon="5.32336">
        <ele>213.5</ele>
        <time>2021-10-19T13:48:08Z</time>
      </trkpt>
      <trkpt lat="43.54365" lon="5.32336">
        <ele>198.1</ele>
        <time>2021-10-19T13:48:19Z</time>
      </trkpt>
      <trkpt lat="43.54367" lon="5.32336">
        <ele>205.4</ele>
        <time>2021-10-19T13:48:29Z</time>
      </trkpt>
      <trkpt lat="43.54368" lon="5.32341">
        <ele>229.4</ele>
        <time>2021-10-19T13:48:40Z</time>
      </trkpt>
      <trkpt lat="43.54368" lon="5.32344">
        <ele>219.4</ele>
        <time>2021-10-19T13:48:51Z</time>
      </trkpt>
      <trkpt lat="43.54369" lon="5.32348">
        <ele>223.3</ele>
        <time>2021-10-19T13:49:01Z</time>
      </trkpt>
      <trkpt lat="43.54371" lon="5.32352">
        <ele>211</ele>
        <time>2021-10-19T13:49:12Z</time>
      </trkpt>
      <trkpt lat="43.54373" lon="5.3236">
        <ele>216.2</ele>
        <time>2021-10-19T13:49:23Z</time>
      </trkpt>
      <trkpt lat="43.54373" lon="5.32373">
        <ele>208.7</ele>
        <time>2021-10-19T13:49:34Z</time>
      </trkpt>
      <trkpt lat="43.5437" lon="5.32387">
        <ele>207.3</ele>
        <time>2021-10-19T13:49:44Z</time>
      </trkpt>
      <trkpt lat="43.54366" lon="5.32401">
        <ele>204.2</ele>
        <time>2021-10-19T13:49:55Z</time>
      </trkpt>
      <trkpt lat="43.54363" lon="5.32416">
        <ele>202.5</ele>
        <time>2021-10-19T13:50:06Z</time>
      </trkpt>
      <trkpt lat="43.5436" lon="5.32429">
        <ele>212.7</ele>
        <time>2021-10-19T13:50:16Z</time>
      </trkpt>
      <trkpt lat="43.54357" lon="5.32444">
        <ele>187.9</ele>
        <time>2021-10-19T13:50:27Z</time>
      </trkpt>
      <trkpt lat="43.54354" lon="5.32457">
        <ele>200.9</ele>
        <time>2021-10-19T13:50:37Z</time>
      </trkpt>
      <trkpt lat="43.54351" lon="5.32462">
        <ele>207.9</ele>
        <time>2021-10-19T13:50:47Z</time>
      </trkpt>
      <trkpt lat="43.54349" lon="5.32469">
        <ele>186.7</ele>
        <time>2021-10-19T13:50:58Z</time>
      </trkpt>
      <trkpt lat="43.54349" lon="5.32472">
        <ele>214.3</ele>
        <time>2021-10-19T13:51:08Z</time>
      </trkpt>
    </trkseg>
  </trk>
</gpx>